createdAt,value
2022-09-13T00:02:23.153Z,9.20
2022-09-13T00:05:08.907Z,9.20
2022-09-13T00:07:54.311Z,9.20
2022-09-13T00:10:40.773Z,9.20
2022-09-13T00:13:25.877Z,9.30
2022-09-13T00:16:15.119Z,9.20
2022-09-13T00:19:01.147Z,9.10
2022-09-13T00:21:46.310Z,9.10
2022-09-13T00:24:31.439Z,9.10
2022-09-13T00:27:17.455Z,9.10
2022-09-13T00:30:03.999Z,9.10
2022-09-13T00:32:49.287Z,9.10
2022-09-13T00:35:35.679Z,9.10
2022-09-13T00:38:21.028Z,9.10
2022-09-13T00:41:07.002Z,9.10
2022-09-13T00:43:52.173Z,9.10
2022-09-13T00:46:42.576Z,9.20
2022-09-13T00:49:36.543Z,9.10
2022-09-13T00:52:23.450Z,9.20
2022-09-13T00:55:12.418Z,9.10
2022-09-13T00:58:01.725Z,9.00
2022-09-13T01:00:47.478Z,9.00
2022-09-13T01:03:34.004Z,9.00
2022-09-13T01:06:21.139Z,9.00
2022-09-13T01:09:06.497Z,9.00
2022-09-13T01:11:58.771Z,9.00
2022-09-13T01:14:43.897Z,9.00
2022-09-13T01:17:30.059Z,8.90
2022-09-13T01:20:15.225Z,8.90
2022-09-13T01:23:00.417Z,8.90
2022-09-13T01:25:45.462Z,8.90
2022-09-13T01:28:49.288Z,8.90
2022-09-13T01:31:46.275Z,8.90
2022-09-13T01:34:31.273Z,8.90
2022-09-13T01:37:38.425Z,8.90
2022-09-13T01:40:23.713Z,8.90
2022-09-13T01:43:23.619Z,8.90
2022-09-13T01:46:21.148Z,8.90
2022-09-13T01:49:22.531Z,8.90
2022-09-13T01:52:11.745Z,8.90
2022-09-13T01:55:00.073Z,8.90
2022-09-13T01:57:53.198Z,8.90
2022-09-13T02:00:45.676Z,8.90
2022-09-13T02:03:34.528Z,8.90
2022-09-13T02:06:45.655Z,8.80
2022-09-13T02:09:32.843Z,8.80
2022-09-13T02:12:20.125Z,8.80
2022-09-13T02:15:21.039Z,8.80
2022-09-13T02:18:11.144Z,8.70
2022-09-13T02:20:59.397Z,8.70
2022-09-13T02:23:47.325Z,8.60
2022-09-13T02:26:33.911Z,8.60
2022-09-13T02:29:21.288Z,8.60
2022-09-13T02:32:08.627Z,8.60
2022-09-13T02:34:58.057Z,8.60
2022-09-13T02:37:45.193Z,8.50
2022-09-13T02:40:32.440Z,8.50
2022-09-13T02:43:27.483Z,8.50
2022-09-13T02:46:21.950Z,8.50
2022-09-13T02:49:27.121Z,8.50
2022-09-13T02:52:19.997Z,8.40
2022-09-13T02:55:28.736Z,8.40
2022-09-13T02:58:28.219Z,8.40
2022-09-13T03:01:14.457Z,8.40
2022-09-13T03:04:00.124Z,8.50
2022-09-13T03:06:45.796Z,8.50
2022-09-13T03:09:31.924Z,8.40
2022-09-13T03:12:17.296Z,8.40
2022-09-13T03:15:08.631Z,8.30
2022-09-13T03:18:23.237Z,8.30
2022-09-13T03:21:26.841Z,8.20
2022-09-13T03:24:30.575Z,8.20
2022-09-13T03:27:21.855Z,8.30
2022-09-13T03:30:12.898Z,8.30
2022-09-13T03:33:06.363Z,8.30
2022-09-13T03:36:02.807Z,8.40
2022-09-13T03:38:56.477Z,8.40
2022-09-13T03:41:44.034Z,8.50
2022-09-13T03:44:30.541Z,8.50
2022-09-13T03:47:16.284Z,8.50
2022-09-13T03:50:02.176Z,8.60
2022-09-13T03:52:48.574Z,8.70
2022-09-13T03:55:35.039Z,8.70
2022-09-13T03:58:21.629Z,8.70
2022-09-13T04:01:06.870Z,8.70
2022-09-13T04:03:56.367Z,8.60
2022-09-13T04:06:42.070Z,8.60
2022-09-13T04:09:27.015Z,8.50
2022-09-13T04:12:14.324Z,8.50
2022-09-13T04:15:00.204Z,8.40
2022-09-13T04:17:45.635Z,8.40
2022-09-13T04:20:31.235Z,8.40
2022-09-13T04:23:16.342Z,8.40
2022-09-13T04:26:02.232Z,8.40
2022-09-13T04:28:47.651Z,8.40
2022-09-13T04:31:33.023Z,8.50
2022-09-13T04:34:18.801Z,8.50
2022-09-13T04:37:04.347Z,8.60
2022-09-13T04:39:49.677Z,8.60
2022-09-13T04:42:35.281Z,8.70
2022-09-13T04:45:20.305Z,8.80
2022-09-13T04:48:05.494Z,8.90
2022-09-13T04:50:50.545Z,8.90
2022-09-13T04:53:36.005Z,9.00
2022-09-13T04:56:24.774Z,9.00
2022-09-13T04:59:10.844Z,9.10
2022-09-13T05:01:56.251Z,9.20
2022-09-13T05:04:41.275Z,9.20
2022-09-13T05:07:26.697Z,9.30
2022-09-13T05:10:14.264Z,9.40
2022-09-13T05:13:02.847Z,9.50
2022-09-13T05:15:48.079Z,9.60
2022-09-13T05:18:34.879Z,9.70
2022-09-13T05:21:20.778Z,9.80
2022-09-13T05:24:06.108Z,9.80
2022-09-13T05:26:51.192Z,10.00
2022-09-13T05:29:36.155Z,10.10
2022-09-13T05:32:21.506Z,10.30
2022-09-13T05:35:07.125Z,10.40
2022-09-13T05:37:52.795Z,10.50
2022-09-13T05:40:37.962Z,10.70
2022-09-13T05:43:26.326Z,10.90
2022-09-13T05:46:12.844Z,10.90
2022-09-13T05:48:58.611Z,11.00
2022-09-13T05:51:43.611Z,11.00
2022-09-13T05:54:29.067Z,11.10
2022-09-13T05:57:14.441Z,11.20
2022-09-13T05:59:59.436Z,11.30
2022-09-13T06:02:44.453Z,11.30
2022-09-13T06:05:31.996Z,11.40
2022-09-13T06:08:17.337Z,11.50
2022-09-13T06:11:10.021Z,11.50
2022-09-13T06:13:55.097Z,11.60
2022-09-13T06:16:40.248Z,11.70
2022-09-13T06:19:25.590Z,11.90
2022-09-13T06:22:10.973Z,12.00
2022-09-13T06:24:56.196Z,12.20
2022-09-13T06:27:41.918Z,12.30
2022-09-13T06:30:27.369Z,12.30
2022-09-13T06:33:12.760Z,12.50
2022-09-13T06:36:00.414Z,12.60
2022-09-13T06:38:51.092Z,12.70
2022-09-13T06:41:37.364Z,12.80
2022-09-13T06:44:23.551Z,12.90
2022-09-13T06:47:08.959Z,13.10
2022-09-13T06:49:54.118Z,13.20
2022-09-13T06:52:39.215Z,13.30
2022-09-13T06:55:25.028Z,13.30
2022-09-13T06:58:10.450Z,13.40
2022-09-13T07:01:04.793Z,13.50
2022-09-13T07:03:55.180Z,13.60
2022-09-13T07:06:44.768Z,13.60
2022-09-13T07:09:30.336Z,13.70
2022-09-13T07:12:19.989Z,13.80
2022-09-13T07:15:06.225Z,13.80
2022-09-13T07:17:51.508Z,13.80
2022-09-13T07:20:36.635Z,13.80
2022-09-13T07:23:21.805Z,14.00
2022-09-13T07:26:07.901Z,14.10
2022-09-13T07:28:54.259Z,14.10
2022-09-13T07:31:40.604Z,14.10
2022-09-13T07:34:26.509Z,14.10
2022-09-13T07:37:11.734Z,14.20
2022-09-13T07:39:56.920Z,14.30
2022-09-13T07:42:42.837Z,14.40
2022-09-13T07:45:28.785Z,14.50
2022-09-13T07:48:14.183Z,14.60
2022-09-13T07:51:00.450Z,14.70
2022-09-13T07:53:46.280Z,14.80
2022-09-13T07:56:32.557Z,14.90
2022-09-13T07:59:18.211Z,15.00
2022-09-13T08:02:03.535Z,15.10
2022-09-13T08:04:49.115Z,15.10
2022-09-13T08:07:34.352Z,15.20
2022-09-13T08:10:19.339Z,15.20
2022-09-13T08:13:04.505Z,15.30
2022-09-13T08:15:50.033Z,15.30
2022-09-13T08:18:35.800Z,15.40
2022-09-13T08:21:21.430Z,15.40
2022-09-13T08:24:08.621Z,15.30
2022-09-13T08:26:54.867Z,15.30
2022-09-13T08:29:40.328Z,15.40
2022-09-13T08:32:25.359Z,15.40
2022-09-13T08:35:10.355Z,15.40
2022-09-13T08:37:56.064Z,15.40
2022-09-13T08:40:41.949Z,15.40
2022-09-13T08:43:39.397Z,15.30
2022-09-13T08:46:27.243Z,15.30
2022-09-13T08:49:16.703Z,15.30
2022-09-13T08:52:20.894Z,15.30
2022-09-13T08:55:26.426Z,15.30
2022-09-13T08:58:20.075Z,15.30
2022-09-13T09:01:27.117Z,15.30
2022-09-13T09:04:29.262Z,15.30
2022-09-13T09:07:14.491Z,15.30
2022-09-13T09:10:01.976Z,15.40
2022-09-13T09:12:49.990Z,15.50
2022-09-13T09:15:41.495Z,15.50
2022-09-13T09:18:36.924Z,15.60
2022-09-13T09:21:22.171Z,15.70
2022-09-13T09:24:09.477Z,15.70
2022-09-13T09:26:57.455Z,15.70
2022-09-13T09:29:44.187Z,15.70
2022-09-13T09:32:48.052Z,15.70
2022-09-13T09:35:52.951Z,15.60
2022-09-13T09:38:42.824Z,15.50
2022-09-13T09:41:28.062Z,15.50
2022-09-13T09:44:16.460Z,15.40
2022-09-13T09:47:07.308Z,15.40
2022-09-13T09:50:10.834Z,15.40
2022-09-13T09:53:12.673Z,15.30
2022-09-13T09:56:16.713Z,15.30
2022-09-13T09:59:03.474Z,15.30
2022-09-13T10:01:48.938Z,15.30
2022-09-13T10:04:35.141Z,15.40
2022-09-13T10:07:32.714Z,15.50
2022-09-13T10:10:34.661Z,15.60
2022-09-13T10:13:21.190Z,15.70
2022-09-13T10:16:10.086Z,15.90
2022-09-13T10:18:55.876Z,16.10
2022-09-13T10:21:41.422Z,16.20
2022-09-13T10:24:27.425Z,16.40
2022-09-13T10:27:20.298Z,16.50
2022-09-13T10:30:06.515Z,16.70
2022-09-13T10:32:55.344Z,16.90
2022-09-13T10:35:40.793Z,17.10
2022-09-13T10:38:27.731Z,17.10
2022-09-13T10:41:21.942Z,15.90
2022-09-13T10:44:22.925Z,17.10
2022-09-13T10:47:14.524Z,17.10
2022-09-13T10:50:10.663Z,17.20
2022-09-13T10:52:56.694Z,17.30
2022-09-13T10:55:43.935Z,17.40
2022-09-13T10:58:29.242Z,17.50
2022-09-13T11:01:40.161Z,17.50
2022-09-13T11:04:29.045Z,17.50
2022-09-13T11:07:14.716Z,17.50
2022-09-13T11:10:11.574Z,17.50
2022-09-13T11:13:07.530Z,17.50
2022-09-13T11:16:04.441Z,17.50
2022-09-13T11:18:55.179Z,17.50
2022-09-13T11:21:51.062Z,17.60
2022-09-13T11:24:37.231Z,17.70
2022-09-13T11:27:30.923Z,17.60
2022-09-13T11:30:27.787Z,17.90
2022-09-13T11:33:24.725Z,17.90
2022-09-13T11:36:25.988Z,17.90
2022-09-13T11:39:14.018Z,18.00
2022-09-13T11:42:04.998Z,18.00
2022-09-13T11:45:05.443Z,18.10
2022-09-13T11:47:50.525Z,18.30
2022-09-13T11:50:37.406Z,18.40
2022-09-13T11:53:29.842Z,18.60
2022-09-13T11:56:23.413Z,18.60
2022-09-13T11:59:15.723Z,18.60
2022-09-13T12:02:11.298Z,18.50
2022-09-13T12:05:20.553Z,18.40
2022-09-13T12:08:11.077Z,18.30
2022-09-13T12:10:59.780Z,18.20
2022-09-13T12:13:45.022Z,18.10
2022-09-13T12:16:48.718Z,17.90
2022-09-13T12:19:45.402Z,17.80
2022-09-13T12:22:33.781Z,17.70
2022-09-13T12:25:23.550Z,17.70
2022-09-13T12:28:16.420Z,17.70
2022-09-13T12:31:05.240Z,17.70
2022-09-13T12:33:50.775Z,17.70
2022-09-13T12:36:43.202Z,17.60
2022-09-13T12:39:37.291Z,17.50
2022-09-13T12:42:33.936Z,17.40
2022-09-13T12:45:19.140Z,17.30
2022-09-13T12:48:04.311Z,17.20
2022-09-13T12:50:49.720Z,17.10
2022-09-13T12:53:38.169Z,16.90
2022-09-13T12:56:23.549Z,16.80
2022-09-13T12:59:41.158Z,16.60
2022-09-13T13:02:29.324Z,16.60
2022-09-13T13:05:30.844Z,16.60
2022-09-13T13:08:21.844Z,16.50
2022-09-13T13:11:14.334Z,16.50
2022-09-13T13:14:02.428Z,16.60
2022-09-13T13:16:49.700Z,17.60
2022-09-13T13:19:34.701Z,16.50
2022-09-13T13:22:38.696Z,16.50
2022-09-13T13:25:40.081Z,16.50
2022-09-13T13:28:43.064Z,16.50
2022-09-13T13:31:29.768Z,16.40
2022-09-13T13:34:14.923Z,16.40
2022-09-13T13:37:02.030Z,16.50
2022-09-13T13:39:49.607Z,16.60
2022-09-13T13:42:38.736Z,16.70
2022-09-13T13:45:28.351Z,16.70
2022-09-13T13:48:15.672Z,16.70
2022-09-13T13:51:18.015Z,16.80
2022-09-13T13:54:23.060Z,16.80
2022-09-13T13:57:20.913Z,16.80
2022-09-13T14:00:15.657Z,16.70
2022-09-13T14:03:09.974Z,16.80
2022-09-13T14:06:24.521Z,16.90
2022-09-13T14:09:16.130Z,17.00
2022-09-13T14:12:21.504Z,17.00
2022-09-13T14:15:15.420Z,17.10
2022-09-13T14:18:08.070Z,17.10
2022-09-13T14:21:00.683Z,17.10
2022-09-13T14:23:45.915Z,17.20
2022-09-13T14:26:31.546Z,17.10
2022-09-13T14:29:19.075Z,17.10
2022-09-13T14:32:06.779Z,17.10
2022-09-13T14:34:54.221Z,17.00
2022-09-13T14:37:40.414Z,17.00
2022-09-13T14:40:26.810Z,17.00
2022-09-13T14:43:31.264Z,16.90
2022-09-13T14:46:26.991Z,16.90
2022-09-13T14:49:20.908Z,16.70
2022-09-13T14:52:08.908Z,16.70
2022-09-13T14:54:57.271Z,16.60
2022-09-13T14:57:46.537Z,16.50
2022-09-13T15:00:33.884Z,16.50
2022-09-13T15:03:19.719Z,16.40
2022-09-13T15:06:05.624Z,16.30
2022-09-13T15:08:51.936Z,16.30
2022-09-13T15:11:38.893Z,16.30
2022-09-13T15:14:28.884Z,16.30
2022-09-13T15:17:14.564Z,16.30
2022-09-13T15:20:04.459Z,16.20
2022-09-13T15:22:53.877Z,16.10
2022-09-13T15:25:39.905Z,16.10
2022-09-13T15:28:27.550Z,16.00
2022-09-13T15:31:33.269Z,15.90
2022-09-13T15:34:23.837Z,15.90
2022-09-13T15:37:10.721Z,15.80
2022-09-13T15:40:08.730Z,15.70
2022-09-13T15:42:54.356Z,15.60
2022-09-13T15:45:40.098Z,15.50
2022-09-13T15:48:35.469Z,15.40
2022-09-13T15:51:21.062Z,15.50
2022-09-13T15:54:12.074Z,15.40
2022-09-13T15:56:58.472Z,15.40
2022-09-13T15:59:43.970Z,15.30
2022-09-13T16:02:33.195Z,15.30
2022-09-13T16:05:18.594Z,15.40
2022-09-13T16:08:03.739Z,15.40
2022-09-13T16:10:48.813Z,15.40
2022-09-13T16:13:34.288Z,15.40
2022-09-13T16:16:19.789Z,15.40
2022-09-13T16:19:05.304Z,15.40
2022-09-13T16:21:50.450Z,15.30
2022-09-13T16:24:37.900Z,15.30
2022-09-13T16:27:23.400Z,15.30
2022-09-13T16:30:10.492Z,15.30
2022-09-13T16:32:56.172Z,15.20
2022-09-13T16:35:41.325Z,15.30
2022-09-13T16:38:26.528Z,15.30
2022-09-13T16:41:11.834Z,15.40
2022-09-13T16:43:57.145Z,15.20
2022-09-13T16:46:42.560Z,15.20
2022-09-13T16:49:28.201Z,15.20
2022-09-13T16:52:13.277Z,15.10
2022-09-13T16:54:58.800Z,15.00
2022-09-13T16:57:45.400Z,14.90
2022-09-13T17:00:31.119Z,14.80
2022-09-13T17:03:17.208Z,14.70
2022-09-13T17:06:04.499Z,14.60
2022-09-13T17:08:51.892Z,14.60
2022-09-13T17:11:39.242Z,14.50
2022-09-13T17:14:25.201Z,14.40
2022-09-13T17:17:11.005Z,14.30
2022-09-13T17:19:58.945Z,14.30
2022-09-13T17:22:44.752Z,14.20
2022-09-13T17:25:31.576Z,14.10
2022-09-13T17:28:17.485Z,14.00
2022-09-13T17:31:03.872Z,14.00
2022-09-13T17:33:50.533Z,14.00
2022-09-13T17:36:36.714Z,13.90
2022-09-13T17:39:22.936Z,13.80
2022-09-13T17:42:09.061Z,13.70
2022-09-13T17:44:54.915Z,13.70
2022-09-13T17:47:40.892Z,13.60
2022-09-13T17:50:26.969Z,13.60
2022-09-13T17:53:13.674Z,13.50
2022-09-13T17:55:59.442Z,13.50
2022-09-13T17:58:46.358Z,13.50
2022-09-13T18:01:32.435Z,13.40
2022-09-13T18:04:19.341Z,13.40
2022-09-13T18:07:05.406Z,13.40
2022-09-13T18:09:51.521Z,13.30
2022-09-13T18:12:37.615Z,13.30
2022-09-13T18:15:23.965Z,13.20
2022-09-13T18:18:09.772Z,13.20
2022-09-13T18:20:56.579Z,13.30
2022-09-13T18:23:42.462Z,13.10
2022-09-13T18:26:29.330Z,13.10
2022-09-13T18:29:15.505Z,13.00
2022-09-13T18:32:01.909Z,12.90
2022-09-13T18:34:47.714Z,12.80
2022-09-13T18:37:34.044Z,12.80
2022-09-13T18:40:23.350Z,12.80
2022-09-13T18:43:09.631Z,12.80
2022-09-13T18:46:05.372Z,12.80
2022-09-13T18:48:55.141Z,12.70
2022-09-13T18:51:42.293Z,12.70
2022-09-13T18:54:28.507Z,12.60
2022-09-13T18:57:14.582Z,12.70
2022-09-13T19:00:00.667Z,12.60
2022-09-13T19:03:10.827Z,12.60
2022-09-13T19:05:54.666Z,12.60
2022-09-13T19:08:40.886Z,12.60
2022-09-13T19:14:34.689Z,12.50
2022-09-13T19:17:20.750Z,12.60
2022-09-13T19:20:06.956Z,12.50
2022-09-13T19:22:53.087Z,12.50
2022-09-13T19:25:39.202Z,12.60
2022-09-13T19:28:25.128Z,12.50
2022-09-13T19:31:12.263Z,12.50
2022-09-13T19:33:58.700Z,12.50
2022-09-13T19:36:45.219Z,12.60
2022-09-13T19:39:31.217Z,12.60
2022-09-13T19:42:17.578Z,12.60
2022-09-13T19:45:03.208Z,12.50
2022-09-13T19:50:55.424Z,12.70
2022-09-13T19:53:56.421Z,12.60
2022-09-13T19:56:43.538Z,12.50
2022-09-13T19:59:31.777Z,14.70
2022-09-13T20:02:17.292Z,12.50
2022-09-13T20:05:02.943Z,12.40
2022-09-13T20:07:49.118Z,12.40
2022-09-13T20:10:40.455Z,12.40
2022-09-13T20:13:25.898Z,12.30
2022-09-13T20:16:16.925Z,12.30
2022-09-13T20:19:10.506Z,12.30
2022-09-13T20:22:04.646Z,12.30
2022-09-13T20:24:49.921Z,12.30
2022-09-13T20:27:35.117Z,12.30
2022-09-13T20:30:20.367Z,12.30
2022-09-13T20:33:05.739Z,12.30
2022-09-13T20:35:50.818Z,12.30
2022-09-13T20:38:36.557Z,12.30
2022-09-13T20:41:21.840Z,12.20
2022-09-13T20:44:07.572Z,12.20
2022-09-13T20:46:53.065Z,12.20
2022-09-13T20:49:38.212Z,12.20
2022-09-13T20:52:23.438Z,12.20
2022-09-13T20:55:08.705Z,12.20
2022-09-13T20:57:54.333Z,12.10
2022-09-13T21:00:39.734Z,12.20
2022-09-13T21:03:24.851Z,12.20
2022-09-13T21:06:10.592Z,12.10
2022-09-13T21:09:00.034Z,12.10
2022-09-13T21:11:46.653Z,12.10
2022-09-13T21:14:32.268Z,12.10
2022-09-13T21:17:17.363Z,12.10
2022-09-13T21:20:02.911Z,12.10
2022-09-13T21:22:48.788Z,12.10
2022-09-13T21:25:35.917Z,12.10
2022-09-13T21:28:21.272Z,12.00
2022-09-13T21:31:08.202Z,12.00
2022-09-13T21:34:02.043Z,12.00
2022-09-13T21:36:47.804Z,11.90
2022-09-13T21:39:32.905Z,11.90
2022-09-13T21:42:17.978Z,11.80
2022-09-13T21:45:03.125Z,11.80
2022-09-13T21:47:49.427Z,11.80
2022-09-13T21:50:34.857Z,11.80
2022-09-13T21:53:20.000Z,11.80
2022-09-13T21:56:09.879Z,11.80
2022-09-13T21:58:55.057Z,11.90
2022-09-13T22:01:52.059Z,11.80
2022-09-13T22:05:10.100Z,11.80
2022-09-13T22:07:55.686Z,11.80
2022-09-13T22:10:40.829Z,11.70
2022-09-13T22:13:26.107Z,11.80
2022-09-13T22:16:18.138Z,11.70
2022-09-13T22:19:09.282Z,11.70
2022-09-13T22:21:56.051Z,11.70
2022-09-13T22:24:41.086Z,11.70
2022-09-13T22:27:26.316Z,11.70
2022-09-13T22:30:11.695Z,11.60
2022-09-13T22:32:57.112Z,11.70
2022-09-13T22:35:42.287Z,11.80
2022-09-13T22:38:28.439Z,11.80
2022-09-13T22:41:14.721Z,11.80
2022-09-13T22:44:00.751Z,11.70
2022-09-13T22:46:46.291Z,11.70
2022-09-13T22:49:31.422Z,11.70
2022-09-13T22:52:16.443Z,11.70
2022-09-13T22:55:01.503Z,11.70
2022-09-13T22:57:46.595Z,11.70
2022-09-13T23:00:31.667Z,11.70
2022-09-13T23:03:16.893Z,11.80
2022-09-13T23:06:02.459Z,11.80
2022-09-13T23:08:48.768Z,11.80
2022-09-13T23:11:35.814Z,11.80
2022-09-13T23:14:20.841Z,11.80
2022-09-13T23:17:06.581Z,11.70
2022-09-13T23:19:51.876Z,11.70
2022-09-13T23:22:37.374Z,11.70
2022-09-13T23:25:23.110Z,11.70
2022-09-13T23:28:09.110Z,11.60
2022-09-13T23:30:54.204Z,11.70
2022-09-13T23:33:43.563Z,11.70
2022-09-13T23:36:30.306Z,11.70
2022-09-13T23:39:17.139Z,11.70
2022-09-13T23:42:12.142Z,11.70
2022-09-13T23:45:07.166Z,11.80
2022-09-13T23:47:58.101Z,11.80
2022-09-13T23:50:55.922Z,11.80
2022-09-13T23:53:44.674Z,11.80
2022-09-13T23:56:37.599Z,11.80
2022-09-13T23:59:33.556Z,11.80
